sensor_id;sensor_type;location;lat;lon;timestamp;P1;durP1;ratioP1;P2;durP2;ratioP2
20014;SDS011;61787;42.022;23.078;2022-10-16T00:00:34;6.30;;;4.33;;
20014;SDS011;61787;42.022;23.078;2022-10-16T00:01:37;4.87;;;4.10;;
20014;SDS011;61787;42.022;23.078;2022-10-16T00:02:39;6.27;;;4.10;;
20014;SDS011;61787;42.022;23.078;2022-10-16T00:03:41;4.93;;;4.40;;
20014;SDS011;61787;42.022;23.078;2022-10-16T00:04:44;7.60;;;4.03;;
20014;SDS011;61787;42.022;23.078;2022-10-16T00:05:46;5.10;;;4.00;;
20014;SDS011;61787;42.022;23.078;2022-10-16T00:06:47;6.13;;;4.10;;
20014;SDS011;61787;42.022;23.078;2022-10-16T00:07:49;5.37;;;4.73;;
20014;SDS011;61787;42.022;23.078;2022-10-16T00:08:51;5.93;;;4.63;;
20014;SDS011;61787;42.022;23.078;2022-10-16T00:09:53;7.13;;;4.13;;
20014;SDS011;61787;42.022;23.078;2022-10-16T00:10:58;5.97;;;4.33;;
20014;SDS011;61787;42.022;23.078;2022-10-16T00:12:07;7.97;;;4.70;;
20014;SDS011;61787;42.022;23.078;2022-10-16T00:13:08;5.43;;;4.37;;
20014;SDS011;61787;42.022;23.078;2022-10-16T00:14:11;5.37;;;4.47;;
20014;SDS011;61787;42.022;23.078;2022-10-16T00:15:15;6.10;;;4.30;;
20014;SDS011;61787;42.022;23.078;2022-10-16T00:16:17;4.93;;;4.43;;
20014;SDS011;61787;42.022;23.078;2022-10-16T00:17:19;6.20;;;4.63;;
20014;SDS011;61787;42.022;23.078;2022-10-16T00:18:21;7.37;;;4.57;;
20014;SDS011;61787;42.022;23.078;2022-10-16T00:19:22;6.07;;;4.23;;
20014;SDS011;61787;42.022;23.078;2022-10-16T00:20:24;5.73;;;4.33;;
20014;SDS011;61787;42.022;23.078;2022-10-16T00:21:27;5.63;;;4.17;;
20014;SDS011;61787;42.022;23.078;2022-10-16T00:22:30;6.77;;;4.17;;
20014;SDS011;61787;42.022;23.078;2022-10-16T00:23:31;6.40;;;4.47;;
20014;SDS011;61787;42.022;23.078;2022-10-16T00:24:33;9.77;;;4.63;;
20014;SDS011;61787;42.022;23.078;2022-10-16T00:25:35;6.67;;;4.70;;
20014;SDS011;61787;42.022;23.078;2022-10-16T00:26:37;7.13;;;5.30;;
20014;SDS011;61787;42.022;23.078;2022-10-16T00:27:40;4.90;;;4.40;;
20014;SDS011;61787;42.022;23.078;2022-10-16T00:28:41;8.33;;;5.40;;
20014;SDS011;61787;42.022;23.078;2022-10-16T00:29:43;6.73;;;5.03;;
20014;SDS011;61787;42.022;23.078;2022-10-16T00:30:45;7.53;;;4.73;;
20014;SDS011;61787;42.022;23.078;2022-10-16T00:31:46;5.90;;;4.17;;
20014;SDS011;61787;42.022;23.078;2022-10-16T00:32:48;5.37;;;4.27;;
20014;SDS011;61787;42.022;23.078;2022-10-16T00:33:49;7.90;;;4.47;;
20014;SDS011;61787;42.022;23.078;2022-10-16T00:34:52;8.20;;;4.67;;
20014;SDS011;61787;42.022;23.078;2022-10-16T00:35:57;6.10;;;4.80;;
20014;SDS011;61787;42.022;23.078;2022-10-16T00:36:59;8.47;;;4.73;;
20014;SDS011;61787;42.022;23.078;2022-10-16T00:38:01;5.23;;;4.73;;
20014;SDS011;61787;42.022;23.078;2022-10-16T00:39:03;6.30;;;4.70;;
20014;SDS011;61787;42.022;23.078;2022-10-16T00:40:04;5.17;;;4.23;;
20014;SDS011;61787;42.022;23.078;2022-10-16T00:41:07;5.93;;;4.47;;
20014;SDS011;61787;42.022;23.078;2022-10-16T00:42:14;5.53;;;4.07;;
20014;SDS011;61787;42.022;23.078;2022-10-16T00:43:37;7.20;;;5.00;;
20014;SDS011;61787;42.022;23.078;2022-10-16T00:44:50;5.23;;;4.30;;
20014;SDS011;61787;42.022;23.078;2022-10-16T00:45:53;6.17;;;5.00;;
20014;SDS011;61787;42.022;23.078;2022-10-16T00:46:55;6.20;;;4.30;;
20014;SDS011;61787;42.022;23.078;2022-10-16T00:47:56;7.07;;;4.20;;
20014;SDS011;61787;42.022;23.078;2022-10-16T00:49:03;6.90;;;4.90;;
20014;SDS011;61787;42.022;23.078;2022-10-16T00:50:09;6.77;;;4.63;;
20014;SDS011;61787;42.022;23.078;2022-10-16T00:51:18;7.37;;;4.73;;
20014;SDS011;61787;42.022;23.078;2022-10-16T00:52:23;7.87;;;5.07;;
20014;SDS011;61787;42.022;23.078;2022-10-16T00:53:25;6.93;;;4.30;;
20014;SDS011;61787;42.022;23.078;2022-10-16T00:54:30;9.00;;;5.17;;
20014;SDS011;61787;42.022;23.078;2022-10-16T00:55:33;5.33;;;4.47;;
20014;SDS011;61787;42.022;23.078;2022-10-16T00:56:40;7.10;;;4.80;;
20014;SDS011;61787;42.022;23.078;2022-10-16T00:57:43;5.43;;;3.97;;
20014;SDS011;61787;42.022;23.078;2022-10-16T00:58:45;7.43;;;4.60;;
20014;SDS011;61787;42.022;23.078;2022-10-16T00:59:47;5.87;;;4.43;;
20014;SDS011;61787;42.022;23.078;2022-10-16T01:00:48;7.20;;;4.70;;
20014;SDS011;61787;42.022;23.078;2022-10-16T01:01:51;6.77;;;4.60;;
20014;SDS011;61787;42.022;23.078;2022-10-16T01:02:57;5.87;;;4.13;;
20014;SDS011;61787;42.022;23.078;2022-10-16T01:04:01;6.67;;;4.57;;
20014;SDS011;61787;42.022;23.078;2022-10-16T01:05:02;5.23;;;4.30;;
20014;SDS011;61787;42.022;23.078;2022-10-16T01:06:11;10.50;;;4.53;;
20014;SDS011;61787;42.022;23.078;2022-10-16T01:07:40;8.50;;;4.83;;
20014;SDS011;61787;42.022;23.078;2022-10-16T01:13:53;7.30;;;4.57;;
20014;SDS011;61787;42.022;23.078;2022-10-16T01:14:53;5.10;;;4.30;;
20014;SDS011;61787;42.022;23.078;2022-10-16T01:17:49;6.63;;;4.57;;
20014;SDS011;61787;42.022;23.078;2022-10-16T01:20:16;7.07;;;4.83;;
20014;SDS011;61787;42.022;23.078;2022-10-16T01:21:35;7.63;;;4.77;;
20014;SDS011;61787;42.022;23.078;2022-10-16T01:24:06;7.00;;;4.90;;
20014;SDS011;61787;42.022;23.078;2022-10-16T01:25:31;7.07;;;4.50;;
20014;SDS011;61787;42.022;23.078;2022-10-16T01:28:08;6.40;;;4.37;;
20014;SDS011;61787;42.022;23.078;2022-10-16T01:29:21;5.47;;;4.43;;
20014;SDS011;61787;42.022;23.078;2022-10-16T01:30:31;5.90;;;4.63;;
20014;SDS011;61787;42.022;23.078;2022-10-16T01:31:35;6.47;;;4.57;;
20014;SDS011;61787;42.022;23.078;2022-10-16T01:32:42;5.60;;;4.00;;
20014;SDS011;61787;42.022;23.078;2022-10-16T01:33:47;8.20;;;4.73;;
20014;SDS011;61787;42.022;23.078;2022-10-16T01:35:04;5.73;;;4.47;;
20014;SDS011;61787;42.022;23.078;2022-10-16T01:36:21;5.17;;;3.93;;
20014;SDS011;61787;42.022;23.078;2022-10-16T01:37:43;6.23;;;4.27;;
20014;SDS011;61787;42.022;23.078;2022-10-16T01:38:51;7.30;;;4.47;;
20014;SDS011;61787;42.022;23.078;2022-10-16T01:39:55;9.03;;;4.70;;
20014;SDS011;61787;42.022;23.078;2022-10-16T01:41:07;5.93;;;4.50;;
20014;SDS011;61787;42.022;23.078;2022-10-16T01:42:14;5.70;;;4.50;;
20014;SDS011;61787;42.022;23.078;2022-10-16T01:43:57;11.87;;;4.73;;
20014;SDS011;61787;42.022;23.078;2022-10-16T01:44:54;5.83;;;4.07;;
20014;SDS011;61787;42.022;23.078;2022-10-16T01:45:57;6.27;;;4.60;;
20014;SDS011;61787;42.022;23.078;2022-10-16T01:47:00;7.03;;;4.30;;
20014;SDS011;61787;42.022;23.078;2022-10-16T01:48:02;5.00;;;4.23;;
20014;SDS011;61787;42.022;23.078;2022-10-16T01:49:06;8.43;;;4.47;;
20014;SDS011;61787;42.022;23.078;2022-10-16T01:50:11;6.33;;;4.43;;
20014;SDS011;61787;42.022;23.078;2022-10-16T01:51:16;7.10;;;4.53;;
20014;SDS011;61787;42.022;23.078;2022-10-16T01:52:21;6.10;;;4.53;;
20014;SDS011;61787;42.022;23.078;2022-10-16T01:53:27;6.40;;;4.40;;
20014;SDS011;61787;42.022;23.078;2022-10-16T01:54:31;6.37;;;4.47;;
20014;SDS011;61787;42.022;23.078;2022-10-16T01:55:36;5.10;;;4.60;;
20014;SDS011;61787;42.022;23.078;2022-10-16T01:56:45;8.10;;;4.40;;
20014;SDS011;61787;42.022;23.078;2022-10-16T01:57:48;8.00;;;4.70;;
20014;SDS011;61787;42.022;23.078;2022-10-16T01:58:54;10.60;;;4.83;;
20014;SDS011;61787;42.022;23.078;2022-10-16T02:00:00;6.37;;;4.33;;
20014;SDS011;61787;42.022;23.078;2022-10-16T02:01:06;7.60;;;4.30;;
20014;SDS011;61787;42.022;23.078;2022-10-16T02:02:10;7.73;;;4.63;;
20014;SDS011;61787;42.022;23.078;2022-10-16T02:03:15;6.17;;;4.07;;
20014;SDS011;61787;42.022;23.078;2022-10-16T02:04:31;5.97;;;4.17;;
20014;SDS011;61787;42.022;23.078;2022-10-16T02:05:51;6.53;;;4.50;;
20014;SDS011;61787;42.022;23.078;2022-10-16T02:06:55;7.53;;;4.63;;
20014;SDS011;61787;42.022;23.078;2022-10-16T02:07:57;8.17;;;4.90;;
20014;SDS011;61787;42.022;23.078;2022-10-16T02:09:03;7.80;;;4.70;;
20014;SDS011;61787;42.022;23.078;2022-10-16T02:10:05;6.00;;;4.93;;
20014;SDS011;61787;42.022;23.078;2022-10-16T02:11:06;5.77;;;4.50;;
20014;SDS011;61787;42.022;23.078;2022-10-16T02:12:10;6.20;;;4.63;;
20014;SDS011;61787;42.022;23.078;2022-10-16T02:13:21;5.77;;;4.33;;
20014;SDS011;61787;42.022;23.078;2022-10-16T02:14:24;7.13;;;4.63;;
20014;SDS011;61787;42.022;23.078;2022-10-16T02:15:27;6.00;;;4.73;;
20014;SDS011;61787;42.022;23.078;2022-10-16T02:16:33;8.10;;;4.70;;
20014;SDS011;61787;42.022;23.078;2022-10-16T02:17:43;5.30;;;4.33;;
20014;SDS011;61787;42.022;23.078;2022-10-16T02:18:44;7.50;;;4.73;;
20014;SDS011;61787;42.022;23.078;2022-10-16T02:19:47;7.30;;;4.57;;
20014;SDS011;61787;42.022;23.078;2022-10-16T02:20:59;6.20;;;4.43;;
20014;SDS011;61787;42.022;23.078;2022-10-16T02:22:04;6.47;;;4.50;;
20014;SDS011;61787;42.022;23.078;2022-10-16T02:23:08;7.30;;;4.80;;
20014;SDS011;61787;42.022;23.078;2022-10-16T02:25:29;5.00;;;4.43;;
20014;SDS011;61787;42.022;23.078;2022-10-16T02:27:20;7.80;;;4.77;;
20014;SDS011;61787;42.022;23.078;2022-10-16T02:28:06;7.60;;;4.67;;
20014;SDS011;61787;42.022;23.078;2022-10-16T02:29:15;6.33;;;4.33;;
20014;SDS011;61787;42.022;23.078;2022-10-16T02:31:29;6.57;;;4.60;;
20014;SDS011;61787;42.022;23.078;2022-10-16T02:32:36;5.00;;;4.17;;
20014;SDS011;61787;42.022;23.078;2022-10-16T02:33:42;6.30;;;4.17;;
20014;SDS011;61787;42.022;23.078;2022-10-16T02:34:47;4.57;;;3.87;;
20014;SDS011;61787;42.022;23.078;2022-10-16T02:35:50;5.47;;;4.20;;
20014;SDS011;61787;42.022;23.078;2022-10-16T02:36:53;5.20;;;4.40;;
20014;SDS011;61787;42.022;23.078;2022-10-16T02:37:56;7.80;;;5.43;;
20014;SDS011;61787;42.022;23.078;2022-10-16T02:38:58;6.37;;;4.67;;
20014;SDS011;61787;42.022;23.078;2022-10-16T02:40:02;8.00;;;5.40;;
20014;SDS011;61787;42.022;23.078;2022-10-16T02:41:06;6.50;;;4.90;;
20014;SDS011;61787;42.022;23.078;2022-10-16T02:42:14;9.07;;;5.10;;
20014;SDS011;61787;42.022;23.078;2022-10-16T02:43:16;6.57;;;4.90;;
20014;SDS011;61787;42.022;23.078;2022-10-16T02:44:18;7.67;;;5.37;;
20014;SDS011;61787;42.022;23.078;2022-10-16T02:45:19;6.33;;;4.93;;
20014;SDS011;61787;42.022;23.078;2022-10-16T02:46:22;6.53;;;5.30;;
20014;SDS011;61787;42.022;23.078;2022-10-16T02:47:23;6.90;;;4.83;;
20014;SDS011;61787;42.022;23.078;2022-10-16T02:48:25;8.80;;;4.97;;
20014;SDS011;61787;42.022;23.078;2022-10-16T02:49:26;7.60;;;5.13;;
20014;SDS011;61787;42.022;23.078;2022-10-16T02:50:28;10.10;;;5.43;;
20014;SDS011;61787;42.022;23.078;2022-10-16T02:51:29;7.80;;;5.07;;
20014;SDS011;61787;42.022;23.078;2022-10-16T02:52:31;8.20;;;5.00;;
20014;SDS011;61787;42.022;23.078;2022-10-16T02:53:33;6.93;;;5.10;;
20014;SDS011;61787;42.022;23.078;2022-10-16T02:54:34;6.57;;;5.00;;
20014;SDS011;61787;42.022;23.078;2022-10-16T02:55:36;8.00;;;5.43;;
20014;SDS011;61787;42.022;23.078;2022-10-16T02:56:37;7.90;;;5.00;;
20014;SDS011;61787;42.022;23.078;2022-10-16T02:57:39;8.63;;;5.60;;
20014;SDS011;61787;42.022;23.078;2022-10-16T02:58:41;6.73;;;5.77;;
20014;SDS011;61787;42.022;23.078;2022-10-16T02:59:43;8.33;;;5.10;;
20014;SDS011;61787;42.022;23.078;2022-10-16T03:00:45;7.47;;;5.83;;
20014;SDS011;61787;42.022;23.078;2022-10-16T03:01:47;9.17;;;6.13;;
20014;SDS011;61787;42.022;23.078;2022-10-16T03:02:48;10.37;;;5.60;;
20014;SDS011;61787;42.022;23.078;2022-10-16T03:03:50;10.37;;;5.67;;
20014;SDS011;61787;42.022;23.078;2022-10-16T03:04:51;13.40;;;5.40;;
20014;SDS011;61787;42.022;23.078;2022-10-16T03:05:53;9.80;;;5.87;;
20014;SDS011;61787;42.022;23.078;2022-10-16T03:06:54;9.53;;;5.50;;
20014;SDS011;61787;42.022;23.078;2022-10-16T03:07:56;10.70;;;5.47;;
20014;SDS011;61787;42.022;23.078;2022-10-16T03:08:57;11.13;;;5.87;;
20014;SDS011;61787;42.022;23.078;2022-10-16T03:09:59;8.53;;;5.30;;
20014;SDS011;61787;42.022;23.078;2022-10-16T03:11:04;8.47;;;5.70;;
20014;SDS011;61787;42.022;23.078;2022-10-16T03:12:05;8.00;;;5.07;;
20014;SDS011;61787;42.022;23.078;2022-10-16T03:13:07;7.37;;;5.20;;
20014;SDS011;61787;42.022;23.078;2022-10-16T03:14:09;8.40;;;5.73;;
20014;SDS011;61787;42.022;23.078;2022-10-16T03:15:10;7.73;;;5.27;;
20014;SDS011;61787;42.022;23.078;2022-10-16T03:16:12;9.27;;;5.57;;
20014;SDS011;61787;42.022;23.078;2022-10-16T03:17:13;8.13;;;5.50;;
20014;SDS011;61787;42.022;23.078;2022-10-16T03:18:17;7.90;;;5.50;;
20014;SDS011;61787;42.022;23.078;2022-10-16T03:19:19;9.43;;;5.87;;
20014;SDS011;61787;42.022;23.078;2022-10-16T03:20:21;8.70;;;5.73;;
20014;SDS011;61787;42.022;23.078;2022-10-16T03:21:22;10.33;;;5.77;;
20014;SDS011;61787;42.022;23.078;2022-10-16T03:22:24;7.40;;;5.40;;
20014;SDS011;61787;42.022;23.078;2022-10-16T03:23:25;9.80;;;5.60;;
20014;SDS011;61787;42.022;23.078;2022-10-16T03:24:27;9.50;;;5.87;;
20014;SDS011;61787;42.022;23.078;2022-10-16T03:25:28;8.30;;;5.53;;
20014;SDS011;61787;42.022;23.078;2022-10-16T03:26:30;8.53;;;6.00;;
20014;SDS011;61787;42.022;23.078;2022-10-16T03:27:31;7.23;;;5.57;;
20014;SDS011;61787;42.022;23.078;2022-10-16T03:28:33;8.07;;;5.37;;
20014;SDS011;61787;42.022;23.078;2022-10-16T03:29:35;7.83;;;5.40;;
20014;SDS011;61787;42.022;23.078;2022-10-16T03:30:36;6.70;;;5.27;;
20014;SDS011;61787;42.022;23.078;2022-10-16T03:31:38;8.33;;;5.53;;
20014;SDS011;61787;42.022;23.078;2022-10-16T03:32:39;9.40;;;5.40;;
20014;SDS011;61787;42.022;23.078;2022-10-16T03:33:41;8.27;;;5.60;;
20014;SDS011;61787;42.022;23.078;2022-10-16T03:34:42;7.60;;;5.77;;
20014;SDS011;61787;42.022;23.078;2022-10-16T03:35:50;9.27;;;5.67;;
20014;SDS011;61787;42.022;23.078;2022-10-16T03:36:53;7.00;;;5.90;;
20014;SDS011;61787;42.022;23.078;2022-10-16T03:37:55;8.77;;;5.90;;
20014;SDS011;61787;42.022;23.078;2022-10-16T03:38:57;7.83;;;5.70;;
20014;SDS011;61787;42.022;23.078;2022-10-16T03:39:59;7.67;;;5.40;;
20014;SDS011;61787;42.022;23.078;2022-10-16T03:41:00;9.33;;;5.40;;
20014;SDS011;61787;42.022;23.078;2022-10-16T03:42:02;8.40;;;5.50;;
20014;SDS011;61787;42.022;23.078;2022-10-16T03:43:03;6.00;;;5.40;;
20014;SDS011;61787;42.022;23.078;2022-10-16T03:44:05;11.00;;;5.80;;
20014;SDS011;61787;42.022;23.078;2022-10-16T03:45:07;6.50;;;5.50;;
20014;SDS011;61787;42.022;23.078;2022-10-16T03:46:09;6.87;;;4.83;;
20014;SDS011;61787;42.022;23.078;2022-10-16T03:47:11;8.37;;;5.37;;
20014;SDS011;61787;42.022;23.078;2022-10-16T03:48:13;8.63;;;5.50;;
20014;SDS011;61787;42.022;23.078;2022-10-16T03:49:14;6.13;;;4.77;;
20014;SDS011;61787;42.022;23.078;2022-10-16T03:50:16;8.27;;;5.43;;
20014;SDS011;61787;42.022;23.078;2022-10-16T03:51:18;12.67;;;5.73;;
20014;SDS011;61787;42.022;23.078;2022-10-16T03:52:19;6.63;;;5.33;;
20014;SDS011;61787;42.022;23.078;2022-10-16T03:53:21;7.03;;;4.87;;
20014;SDS011;61787;42.022;23.078;2022-10-16T03:54:22;8.50;;;4.80;;
20014;SDS011;61787;42.022;23.078;2022-10-16T03:55:24;7.83;;;4.90;;
20014;SDS011;61787;42.022;23.078;2022-10-16T03:56:26;7.37;;;5.23;;
20014;SDS011;61787;42.022;23.078;2022-10-16T03:57:27;6.20;;;5.07;;
20014;SDS011;61787;42.022;23.078;2022-10-16T03:58:29;8.03;;;5.27;;
20014;SDS011;61787;42.022;23.078;2022-10-16T03:59:31;6.70;;;4.97;;
20014;SDS011;61787;42.022;23.078;2022-10-16T04:00:33;4.97;;;4.47;;
20014;SDS011;61787;42.022;23.078;2022-10-16T04:01:35;5.60;;;5.00;;
20014;SDS011;61787;42.022;23.078;2022-10-16T04:02:37;7.37;;;4.93;;
20014;SDS011;61787;42.022;23.078;2022-10-16T04:03:39;8.87;;;4.90;;
20014;SDS011;61787;42.022;23.078;2022-10-16T04:04:40;7.03;;;4.90;;
20014;SDS011;61787;42.022;23.078;2022-10-16T04:05:42;5.73;;;5.00;;
20014;SDS011;61787;42.022;23.078;2022-10-16T04:06:43;8.67;;;5.20;;
20014;SDS011;61787;42.022;23.078;2022-10-16T04:07:45;9.50;;;5.43;;
20014;SDS011;61787;42.022;23.078;2022-10-16T04:08:47;6.40;;;5.20;;
20014;SDS011;61787;42.022;23.078;2022-10-16T04:09:48;7.87;;;5.20;;
20014;SDS011;61787;42.022;23.078;2022-10-16T04:10:50;8.70;;;5.00;;
20014;SDS011;61787;42.022;23.078;2022-10-16T04:11:52;9.30;;;5.60;;
20014;SDS011;61787;42.022;23.078;2022-10-16T04:12:53;7.80;;;5.13;;
20014;SDS011;61787;42.022;23.078;2022-10-16T04:13:58;11.13;;;6.00;;
20014;SDS011;61787;42.022;23.078;2022-10-16T04:15:00;8.47;;;5.90;;
20014;SDS011;61787;42.022;23.078;2022-10-16T04:16:01;8.27;;;5.73;;
20014;SDS011;61787;42.022;23.078;2022-10-16T04:17:03;9.50;;;5.60;;
20014;SDS011;61787;42.022;23.078;2022-10-16T04:18:05;7.20;;;5.40;;
20014;SDS011;61787;42.022;23.078;2022-10-16T04:19:07;8.13;;;5.63;;
20014;SDS011;61787;42.022;23.078;2022-10-16T04:20:08;9.03;;;5.83;;
20014;SDS011;61787;42.022;23.078;2022-10-16T04:21:10;12.03;;;5.57;;
20014;SDS011;61787;42.022;23.078;2022-10-16T04:22:11;8.03;;;5.50;;
20014;SDS011;61787;42.022;23.078;2022-10-16T04:23:14;8.77;;;5.60;;
20014;SDS011;61787;42.022;23.078;2022-10-16T04:24:15;8.13;;;5.70;;
20014;SDS011;61787;42.022;23.078;2022-10-16T04:25:17;9.27;;;5.40;;
20014;SDS011;61787;42.022;23.078;2022-10-16T04:26:19;9.13;;;5.50;;
20014;SDS011;61787;42.022;23.078;2022-10-16T04:27:20;7.77;;;5.97;;
20014;SDS011;61787;42.022;23.078;2022-10-16T04:28:22;15.23;;;6.03;;
20014;SDS011;61787;42.022;23.078;2022-10-16T04:29:23;9.53;;;5.73;;
20014;SDS011;61787;42.022;23.078;2022-10-16T04:30:25;8.60;;;6.33;;
20014;SDS011;61787;42.022;23.078;2022-10-16T04:31:27;8.80;;;6.13;;
20014;SDS011;61787;42.022;23.078;2022-10-16T04:32:28;7.63;;;5.93;;
20014;SDS011;61787;42.022;23.078;2022-10-16T04:33:30;14.30;;;6.37;;
20014;SDS011;61787;42.022;23.078;2022-10-16T04:34:31;13.47;;;5.70;;
20014;SDS011;61787;42.022;23.078;2022-10-16T04:35:33;7.10;;;5.50;;
20014;SDS011;61787;42.022;23.078;2022-10-16T04:36:34;8.17;;;5.70;;
20014;SDS011;61787;42.022;23.078;2022-10-16T04:37:36;9.77;;;5.77;;
20014;SDS011;61787;42.022;23.078;2022-10-16T04:38:38;10.73;;;5.83;;
20014;SDS011;61787;42.022;23.078;2022-10-16T04:39:40;10.87;;;6.27;;
20014;SDS011;61787;42.022;23.078;2022-10-16T04:40:42;8.00;;;6.00;;
20014;SDS011;61787;42.022;23.078;2022-10-16T04:41:43;12.43;;;6.13;;
20014;SDS011;61787;42.022;23.078;2022-10-16T04:42:45;8.07;;;5.57;;
20014;SDS011;61787;42.022;23.078;2022-10-16T04:43:46;8.37;;;5.50;;
20014;SDS011;61787;42.022;23.078;2022-10-16T04:44:48;10.67;;;6.33;;
20014;SDS011;61787;42.022;23.078;2022-10-16T04:45:50;9.10;;;6.30;;
20014;SDS011;61787;42.022;23.078;2022-10-16T04:46:52;7.80;;;5.57;;
20014;SDS011;61787;42.022;23.078;2022-10-16T04:47:56;10.97;;;6.03;;
20014;SDS011;61787;42.022;23.078;2022-10-16T04:48:58;13.43;;;5.80;;
20014;SDS011;61787;42.022;23.078;2022-10-16T04:50:00;11.83;;;7.23;;
20014;SDS011;61787;42.022;23.078;2022-10-16T04:51:03;8.67;;;6.50;;
20014;SDS011;61787;42.022;23.078;2022-10-16T04:52:05;8.63;;;6.37;;
20014;SDS011;61787;42.022;23.078;2022-10-16T04:53:07;11.07;;;6.40;;
20014;SDS011;61787;42.022;23.078;2022-10-16T04:54:09;10.67;;;6.40;;
20014;SDS011;61787;42.022;23.078;2022-10-16T04:55:11;11.63;;;6.00;;
20014;SDS011;61787;42.022;23.078;2022-10-16T04:56:12;8.27;;;6.00;;
20014;SDS011;61787;42.022;23.078;2022-10-16T04:57:14;12.47;;;6.10;;
20014;SDS011;61787;42.022;23.078;2022-10-16T04:58:15;11.17;;;6.20;;
20014;SDS011;61787;42.022;23.078;2022-10-16T04:59:18;8.80;;;5.80;;
20014;SDS011;61787;42.022;23.078;2022-10-16T05:00:20;10.63;;;6.07;;
20014;SDS011;61787;42.022;23.078;2022-10-16T05:01:22;8.90;;;5.70;;
20014;SDS011;61787;42.022;23.078;2022-10-16T05:02:23;10.10;;;6.03;;
20014;SDS011;61787;42.022;23.078;2022-10-16T05:03:25;9.73;;;5.40;;
20014;SDS011;61787;42.022;23.078;2022-10-16T05:04:26;7.77;;;5.97;;
20014;SDS011;61787;42.022;23.078;2022-10-16T05:05:28;10.73;;;5.40;;
20014;SDS011;61787;42.022;23.078;2022-10-16T05:06:30;9.37;;;5.37;;
20014;SDS011;61787;42.022;23.078;2022-10-16T05:07:31;9.03;;;5.60;;
20014;SDS011;61787;42.022;23.078;2022-10-16T05:08:33;6.87;;;6.00;;
20014;SDS011;61787;42.022;23.078;2022-10-16T05:09:34;6.60;;;5.20;;
20014;SDS011;61787;42.022;23.078;2022-10-16T05:10:36;15.10;;;5.90;;
20014;SDS011;61787;42.022;23.078;2022-10-16T05:11:37;8.00;;;5.63;;
20014;SDS011;61787;42.022;23.078;2022-10-16T05:12:39;9.70;;;5.60;;
20014;SDS011;61787;42.022;23.078;2022-10-16T05:13:41;9.47;;;6.27;;
20014;SDS011;61787;42.022;23.078;2022-10-16T05:14:42;7.03;;;5.63;;
20014;SDS011;61787;42.022;23.078;2022-10-16T05:15:46;9.63;;;5.70;;
20014;SDS011;61787;42.022;23.078;2022-10-16T05:16:49;8.83;;;6.10;;
20014;SDS011;61787;42.022;23.078;2022-10-16T05:17:54;6.43;;;5.50;;
20014;SDS011;61787;42.022;23.078;2022-10-16T05:18:56;11.23;;;5.70;;
20014;SDS011;61787;42.022;23.078;2022-10-16T05:20:17;9.33;;;5.80;;
20014;SDS011;61787;42.022;23.078;2022-10-16T05:21:19;9.27;;;5.67;;
20014;SDS011;61787;42.022;23.078;2022-10-16T05:22:21;8.03;;;6.07;;
20014;SDS011;61787;42.022;23.078;2022-10-16T05:23:23;10.53;;;6.40;;
20014;SDS011;61787;42.022;23.078;2022-10-16T05:24:24;11.07;;;6.53;;
20014;SDS011;61787;42.022;23.078;2022-10-16T05:25:26;9.17;;;6.37;;
20014;SDS011;61787;42.022;23.078;2022-10-16T05:26:28;10.93;;;6.67;;
20014;SDS011;61787;42.022;23.078;2022-10-16T05:27:29;10.23;;;6.40;;
20014;SDS011;61787;42.022;23.078;2022-10-16T05:28:31;9.67;;;6.70;;
20014;SDS011;61787;42.022;23.078;2022-10-16T05:29:33;9.03;;;5.90;;
20014;SDS011;61787;42.022;23.078;2022-10-16T05:30:36;8.53;;;6.53;;
20014;SDS011;61787;42.022;23.078;2022-10-16T05:31:38;8.67;;;6.40;;
20014;SDS011;61787;42.022;23.078;2022-10-16T05:32:40;10.83;;;5.93;;
20014;SDS011;61787;42.022;23.078;2022-10-16T05:33:41;7.47;;;6.13;;
20014;SDS011;61787;42.022;23.078;2022-10-16T05:34:45;10.13;;;6.43;;
20014;SDS011;61787;42.022;23.078;2022-10-16T05:35:47;7.87;;;6.13;;
20014;SDS011;61787;42.022;23.078;2022-10-16T05:36:48;12.47;;;6.60;;
20014;SDS011;61787;42.022;23.078;2022-10-16T05:37:50;8.67;;;7.37;;
20014;SDS011;61787;42.022;23.078;2022-10-16T05:38:52;8.93;;;6.43;;
20014;SDS011;61787;42.022;23.078;2022-10-16T05:39:53;8.83;;;6.27;;
20014;SDS011;61787;42.022;23.078;2022-10-16T05:40:55;10.00;;;6.43;;
20014;SDS011;61787;42.022;23.078;2022-10-16T05:41:57;13.03;;;6.53;;
20014;SDS011;61787;42.022;23.078;2022-10-16T05:42:59;7.33;;;6.03;;
20014;SDS011;61787;42.022;23.078;2022-10-16T05:44:03;12.47;;;6.90;;
20014;SDS011;61787;42.022;23.078;2022-10-16T05:45:05;9.07;;;6.77;;
20014;SDS011;61787;42.022;23.078;2022-10-16T05:46:09;9.33;;;6.67;;
20014;SDS011;61787;42.022;23.078;2022-10-16T05:47:12;12.47;;;6.70;;
20014;SDS011;61787;42.022;23.078;2022-10-16T05:48:13;8.37;;;6.37;;
20014;SDS011;61787;42.022;23.078;2022-10-16T05:49:16;8.30;;;6.50;;
20014;SDS011;61787;42.022;23.078;2022-10-16T05:50:18;9.67;;;6.03;;
20014;SDS011;61787;42.022;23.078;2022-10-16T05:51:19;9.23;;;6.17;;
20014;SDS011;61787;42.022;23.078;2022-10-16T05:52:21;8.60;;;6.30;;
20014;SDS011;61787;42.022;23.078;2022-10-16T05:53:22;9.07;;;5.97;;
20014;SDS011;61787;42.022;23.078;2022-10-16T05:54:26;8.27;;;5.80;;
20014;SDS011;61787;42.022;23.078;2022-10-16T05:55:28;6.87;;;5.50;;
20014;SDS011;61787;42.022;23.078;2022-10-16T05:56:29;8.83;;;5.80;;
20014;SDS011;61787;42.022;23.078;2022-10-16T05:57:31;9.03;;;5.60;;
20014;SDS011;61787;42.022;23.078;2022-10-16T05:58:36;8.47;;;5.60;;
20014;SDS011;61787;42.022;23.078;2022-10-16T05:59:38;10.73;;;5.60;;
20014;SDS011;61787;42.022;23.078;2022-10-16T06:00:40;7.30;;;5.67;;
20014;SDS011;61787;42.022;23.078;2022-10-16T06:01:41;6.53;;;5.50;;
20014;SDS011;61787;42.022;23.078;2022-10-16T06:02:43;7.53;;;5.73;;
20014;SDS011;61787;42.022;23.078;2022-10-16T06:03:45;7.30;;;5.87;;
20014;SDS011;61787;42.022;23.078;2022-10-16T06:04:46;6.17;;;5.37;;
20014;SDS011;61787;42.022;23.078;2022-10-16T06:05:48;9.33;;;6.10;;
20014;SDS011;61787;42.022;23.078;2022-10-16T06:06:50;9.13;;;5.73;;
20014;SDS011;61787;42.022;23.078;2022-10-16T06:07:51;10.27;;;6.20;;
20014;SDS011;61787;42.022;23.078;2022-10-16T06:08:53;9.63;;;5.63;;
20014;SDS011;61787;42.022;23.078;2022-10-16T06:09:56;8.03;;;5.77;;
20014;SDS011;61787;42.022;23.078;2022-10-16T06:11:16;10.40;;;5.70;;
20014;SDS011;61787;42.022;23.078;2022-10-16T06:12:24;7.90;;;5.97;;
20014;SDS011;61787;42.022;23.078;2022-10-16T06:13:26;10.57;;;6.07;;
20014;SDS011;61787;42.022;23.078;2022-10-16T06:14:27;9.27;;;6.03;;
20014;SDS011;61787;42.022;23.078;2022-10-16T06:15:29;6.73;;;5.57;;
20014;SDS011;61787;42.022;23.078;2022-10-16T06:16:30;7.07;;;5.60;;
20014;SDS011;61787;42.022;23.078;2022-10-16T06:17:32;8.67;;;5.50;;
20014;SDS011;61787;42.022;23.078;2022-10-16T06:18:33;7.47;;;5.80;;
20014;SDS011;61787;42.022;23.078;2022-10-16T06:19:35;9.23;;;6.10;;
20014;SDS011;61787;42.022;23.078;2022-10-16T06:20:37;10.93;;;6.50;;
20014;SDS011;61787;42.022;23.078;2022-10-16T06:21:39;8.47;;;5.90;;
20014;SDS011;61787;42.022;23.078;2022-10-16T06:22:40;11.27;;;6.00;;
20014;SDS011;61787;42.022;23.078;2022-10-16T06:23:42;7.60;;;5.83;;
20014;SDS011;61787;42.022;23.078;2022-10-16T06:24:44;7.30;;;5.53;;
20014;SDS011;61787;42.022;23.078;2022-10-16T06:25:47;9.30;;;5.67;;
20014;SDS011;61787;42.022;23.078;2022-10-16T06:26:49;8.60;;;5.73;;
20014;SDS011;61787;42.022;23.078;2022-10-16T06:27:50;7.10;;;5.37;;
20014;SDS011;61787;42.022;23.078;2022-10-16T06:28:53;7.33;;;5.77;;
20014;SDS011;61787;42.022;23.078;2022-10-16T06:29:56;9.90;;;5.60;;